sensor_id;sensor_type;location;lat;lon;timestamp;P1;durP1;ratioP1;P2;durP2;ratioP2
16472;SDS011;8347;52.486;13.432;2022-10-31T04:45:36;17.33;;;11.30;;
16472;SDS011;8347;52.486;13.432;2022-10-31T04:48:24;16.27;;;10.25;;
16472;SDS011;8347;52.486;13.432;2022-10-31T04:51:10;21.05;;;11.88;;
16472;SDS011;8347;52.486;13.432;2022-10-31T04:53:57;16.10;;;10.23;;
16472;SDS011;8347;52.486;13.432;2022-10-31T04:57:07;13.32;;;10.68;;
16472;SDS011;8347;52.486;13.432;2022-10-31T04:59:54;14.82;;;9.65;;
16472;SDS011;8347;52.486;13.432;2022-10-31T05:02:52;17.38;;;11.45;;
16472;SDS011;8347;52.486;13.432;2022-10-31T05:05:41;17.63;;;10.65;;
16472;SDS011;8347;52.486;13.432;2022-10-31T05:08:27;17.95;;;10.88;;
16472;SDS011;8347;52.486;13.432;2022-10-31T05:11:14;14.52;;;10.68;;
16472;SDS011;8347;52.486;13.432;2022-10-31T05:14:03;18.70;;;10.60;;
16472;SDS011;8347;52.486;13.432;2022-10-31T05:17:12;18.48;;;10.27;;
16472;SDS011;8347;52.486;13.432;2022-10-31T05:20:19;20.55;;;10.13;;
16472;SDS011;8347;52.486;13.432;2022-10-31T05:23:25;22.17;;;10.68;;
16472;SDS011;8347;52.486;13.432;2022-10-31T05:26:11;15.07;;;10.70;;
16472;SDS011;8347;52.486;13.432;2022-10-31T05:28:59;19.15;;;11.48;;
16472;SDS011;8347;52.486;13.432;2022-10-31T05:31:45;18.17;;;10.50;;
16472;SDS011;8347;52.486;13.432;2022-10-31T05:34:51;17.80;;;9.85;;
16472;SDS011;8347;52.486;13.432;2022-10-31T05:37:57;18.60;;;10.38;;
16472;SDS011;8347;52.486;13.432;2022-10-31T05:40:44;19.70;;;11.93;;
16472;SDS011;8347;52.486;13.432;2022-10-31T05:43:32;18.67;;;10.82;;
16472;SDS011;8347;52.486;13.432;2022-10-31T11:02:56;32.10;;;20.25;;
16472;SDS011;8347;52.486;13.432;2022-10-31T11:08:38;32.95;;;19.02;;
16472;SDS011;8347;52.486;13.432;2022-10-31T11:11:25;33.28;;;19.60;;
16472;SDS011;8347;52.486;13.432;2022-10-31T11:14:14;29.77;;;19.80;;
16472;SDS011;8347;52.486;13.432;2022-10-31T11:17:10;32.35;;;19.00;;
16472;SDS011;8347;52.486;13.432;2022-10-31T11:23:17;28.40;;;18.38;;
16472;SDS011;8347;52.486;13.432;2022-10-31T11:26:05;35.00;;;21.58;;
16472;SDS011;8347;52.486;13.432;2022-10-31T11:29:02;39.20;;;22.95;;
16472;SDS011;8347;52.486;13.432;2022-10-31T11:31:50;31.33;;;20.35;;
16472;SDS011;8347;52.486;13.432;2022-10-31T11:34:41;31.92;;;20.73;;
16472;SDS011;8347;52.486;13.432;2022-10-31T11:37:32;41.33;;;25.25;;
16472;SDS011;8347;52.486;13.432;2022-10-31T11:40:21;43.97;;;26.27;;
16472;SDS011;8347;52.486;13.432;2022-10-31T11:43:12;50.33;;;29.30;;
16472;SDS011;8347;52.486;13.432;2022-10-31T11:46:08;33.72;;;22.42;;
16472;SDS011;8347;52.486;13.432;2022-10-31T11:48:55;39.45;;;24.30;;
16472;SDS011;8347;52.486;13.432;2022-10-31T11:51:42;44.13;;;24.70;;
16472;SDS011;8347;52.486;13.432;2022-10-31T11:54:45;36.72;;;22.95;;
16472;SDS011;8347;52.486;13.432;2022-10-31T11:57:42;48.33;;;27.48;;
16472;SDS011;8347;52.486;13.432;2022-10-31T12:00:31;42.10;;;23.77;;
16472;SDS011;8347;52.486;13.432;2022-10-31T12:03:32;36.90;;;21.90;;
16472;SDS011;8347;52.486;13.432;2022-10-31T12:06:30;36.30;;;22.75;;
16472;SDS011;8347;52.486;13.432;2022-10-31T12:09:21;41.45;;;24.42;;
16472;SDS011;8347;52.486;13.432;2022-10-31T15:32:57;56.25;;;32.35;;
16472;SDS011;8347;52.486;13.432;2022-10-31T15:35:53;56.03;;;32.08;;
16472;SDS011;8347;52.486;13.432;2022-10-31T15:38:41;56.30;;;33.83;;
16472;SDS011;8347;52.486;13.432;2022-10-31T15:41:32;58.20;;;33.70;;
16472;SDS011;8347;52.486;13.432;2022-10-31T15:44:26;69.28;;;37.85;;
16472;SDS011;8347;52.486;13.432;2022-10-31T15:47:18;58.33;;;34.85;;
16472;SDS011;8347;52.486;13.432;2022-10-31T15:50:06;62.00;;;37.05;;
16472;SDS011;8347;52.486;13.432;2022-10-31T15:53:05;56.00;;;33.85;;
16472;SDS011;8347;52.486;13.432;2022-10-31T15:56:04;62.88;;;33.90;;
16472;SDS011;8347;52.486;13.432;2022-10-31T15:58:52;56.40;;;32.03;;
16472;SDS011;8347;52.486;13.432;2022-10-31T16:01:39;55.78;;;31.75;;
16472;SDS011;8347;52.486;13.432;2022-10-31T16:04:26;49.83;;;32.00;;
16472;SDS011;8347;52.486;13.432;2022-10-31T16:07:13;48.05;;;31.00;;
16472;SDS011;8347;52.486;13.432;2022-10-31T16:10:02;51.72;;;30.42;;
16472;SDS011;8347;52.486;13.432;2022-10-31T16:12:49;53.78;;;30.80;;
16472;SDS011;8347;52.486;13.432;2022-10-31T16:15:35;59.65;;;32.13;;
16472;SDS011;8347;52.486;13.432;2022-10-31T16:18:22;49.78;;;31.25;;
16472;SDS011;8347;52.486;13.432;2022-10-31T16:21:09;55.03;;;32.47;;
16472;SDS011;8347;52.486;13.432;2022-10-31T16:24:04;52.38;;;31.58;;
16472;SDS011;8347;52.486;13.432;2022-10-31T16:26:53;59.40;;;35.42;;
16472;SDS011;8347;52.486;13.432;2022-10-31T16:29:44;52.13;;;32.20;;
16472;SDS011;8347;52.486;13.432;2022-10-31T16:38:19;57.95;;;34.08;;
16472;SDS011;8347;52.486;13.432;2022-10-31T16:41:06;58.10;;;33.17;;
16472;SDS011;8347;52.486;13.432;2022-10-31T16:43:53;53.50;;;32.33;;
16472;SDS011;8347;52.486;13.432;2022-10-31T16:46:40;52.90;;;33.13;;
16472;SDS011;8347;52.486;13.432;2022-10-31T16:49:26;51.22;;;30.67;;
16472;SDS011;8347;52.486;13.432;2022-10-31T16:52:13;54.55;;;32.22;;
16472;SDS011;8347;52.486;13.432;2022-10-31T16:55:00;45.35;;;29.85;;
16472;SDS011;8347;52.486;13.432;2022-10-31T16:57:50;56.03;;;31.60;;
16472;SDS011;8347;52.486;13.432;2022-10-31T17:00:39;55.08;;;32.25;;
16472;SDS011;8347;52.486;13.432;2022-10-31T17:03:26;54.70;;;33.22;;
16472;SDS011;8347;52.486;13.432;2022-10-31T17:06:13;56.28;;;32.78;;
16472;SDS011;8347;52.486;13.432;2022-10-31T17:09:00;55.50;;;31.45;;
16472;SDS011;8347;52.486;13.432;2022-10-31T17:11:47;55.17;;;33.70;;
16472;SDS011;8347;52.486;13.432;2022-10-31T17:14:35;54.00;;;32.08;;
16472;SDS011;8347;52.486;13.432;2022-10-31T17:17:22;49.67;;;31.02;;
16472;SDS011;8347;52.486;13.432;2022-10-31T17:20:22;52.50;;;31.80;;
16472;SDS011;8347;52.486;13.432;2022-10-31T17:23:09;55.15;;;31.13;;
16472;SDS011;8347;52.486;13.432;2022-10-31T17:25:58;45.30;;;30.45;;
16472;SDS011;8347;52.486;13.432;2022-10-31T17:28:44;51.78;;;30.92;;
16472;SDS011;8347;52.486;13.432;2022-10-31T17:31:32;56.28;;;32.00;;
16472;SDS011;8347;52.486;13.432;2022-10-31T17:34:21;53.70;;;31.05;;
16472;SDS011;8347;52.486;13.432;2022-10-31T17:37:08;53.88;;;30.65;;
16472;SDS011;8347;52.486;13.432;2022-10-31T17:39:55;49.25;;;29.90;;
16472;SDS011;8347;52.486;13.432;2022-10-31T17:42:42;47.78;;;30.25;;
16472;SDS011;8347;52.486;13.432;2022-10-31T17:45:33;54.97;;;32.03;;
16472;SDS011;8347;52.486;13.432;2022-10-31T17:48:20;49.05;;;31.50;;
16472;SDS011;8347;52.486;13.432;2022-10-31T17:51:06;47.55;;;31.35;;
16472;SDS011;8347;52.486;13.432;2022-10-31T17:53:53;48.85;;;30.73;;
16472;SDS011;8347;52.486;13.432;2022-10-31T17:56:39;53.30;;;31.40;;
16472;SDS011;8347;52.486;13.432;2022-10-31T17:59:26;52.60;;;31.00;;
16472;SDS011;8347;52.486;13.432;2022-10-31T18:02:14;49.42;;;30.80;;
16472;SDS011;8347;52.486;13.432;2022-10-31T18:05:01;50.90;;;31.25;;
16472;SDS011;8347;52.486;13.432;2022-10-31T18:07:48;53.22;;;31.77;;
16472;SDS011;8347;52.486;13.432;2022-10-31T18:10:37;52.40;;;31.65;;
16472;SDS011;8347;52.486;13.432;2022-10-31T18:13:23;52.13;;;29.67;;
16472;SDS011;8347;52.486;13.432;2022-10-31T18:16:11;59.03;;;31.50;;
16472;SDS011;8347;52.486;13.432;2022-10-31T18:19:00;57.00;;;32.25;;
16472;SDS011;8347;52.486;13.432;2022-10-31T18:21:47;52.33;;;31.52;;
16472;SDS011;8347;52.486;13.432;2022-10-31T18:24:33;53.72;;;31.13;;
16472;SDS011;8347;52.486;13.432;2022-10-31T18:27:20;60.15;;;34.95;;
16472;SDS011;8347;52.486;13.432;2022-10-31T18:30:07;55.40;;;31.40;;
16472;SDS011;8347;52.486;13.432;2022-10-31T18:32:53;55.10;;;33.55;;
16472;SDS011;8347;52.486;13.432;2022-10-31T18:35:40;52.95;;;32.88;;
16472;SDS011;8347;52.486;13.432;2022-10-31T18:38:27;53.70;;;33.17;;
16472;SDS011;8347;52.486;13.432;2022-10-31T18:41:13;50.58;;;31.83;;
16472;SDS011;8347;52.486;13.432;2022-10-31T18:44:00;53.70;;;33.55;;
16472;SDS011;8347;52.486;13.432;2022-10-31T18:46:47;57.83;;;32.92;;
16472;SDS011;8347;52.486;13.432;2022-10-31T18:49:34;53.22;;;35.30;;
16472;SDS011;8347;52.486;13.432;2022-10-31T18:52:21;52.13;;;33.60;;
16472;SDS011;8347;52.486;13.432;2022-10-31T18:55:08;48.42;;;30.80;;
16472;SDS011;8347;52.486;13.432;2022-10-31T18:57:54;49.78;;;31.50;;
16472;SDS011;8347;52.486;13.432;2022-10-31T19:00:41;55.95;;;32.65;;
16472;SDS011;8347;52.486;13.432;2022-10-31T19:03:27;47.70;;;31.50;;
16472;SDS011;8347;52.486;13.432;2022-10-31T19:06:14;54.05;;;33.13;;
16472;SDS011;8347;52.486;13.432;2022-10-31T19:09:03;52.35;;;32.63;;
16472;SDS011;8347;52.486;13.432;2022-10-31T19:11:50;56.58;;;32.67;;
16472;SDS011;8347;52.486;13.432;2022-10-31T19:14:36;49.25;;;33.72;;
16472;SDS011;8347;52.486;13.432;2022-10-31T19:17:24;46.95;;;31.75;;
16472;SDS011;8347;52.486;13.432;2022-10-31T19:20:11;51.00;;;34.58;;
16472;SDS011;8347;52.486;13.432;2022-10-31T19:22:58;53.58;;;33.17;;
16472;SDS011;8347;52.486;13.432;2022-10-31T19:25:44;47.25;;;32.10;;
16472;SDS011;8347;52.486;13.432;2022-10-31T19:28:31;52.17;;;32.30;;
16472;SDS011;8347;52.486;13.432;2022-10-31T19:31:19;50.95;;;32.35;;
16472;SDS011;8347;52.486;13.432;2022-10-31T19:34:05;57.10;;;32.67;;
16472;SDS011;8347;52.486;13.432;2022-10-31T19:36:52;45.40;;;29.73;;
16472;SDS011;8347;52.486;13.432;2022-10-31T19:39:38;45.78;;;31.13;;
16472;SDS011;8347;52.486;13.432;2022-10-31T19:42:25;46.63;;;31.10;;
16472;SDS011;8347;52.486;13.432;2022-10-31T19:45:13;49.35;;;31.55;;
16472;SDS011;8347;52.486;13.432;2022-10-31T19:47:59;54.20;;;33.45;;
16472;SDS011;8347;52.486;13.432;2022-10-31T19:50:46;47.42;;;32.05;;
16472;SDS011;8347;52.486;13.432;2022-10-31T19:53:32;44.40;;;30.73;;
16472;SDS011;8347;52.486;13.432;2022-10-31T19:56:20;52.63;;;34.13;;
16472;SDS011;8347;52.486;13.432;2022-10-31T19:59:07;47.03;;;32.05;;
16472;SDS011;8347;52.486;13.432;2022-10-31T20:01:53;50.22;;;34.22;;
16472;SDS011;8347;52.486;13.432;2022-10-31T20:04:40;48.55;;;31.90;;
16472;SDS011;8347;52.486;13.432;2022-10-31T20:07:26;48.67;;;31.27;;
16472;SDS011;8347;52.486;13.432;2022-10-31T20:10:13;45.60;;;31.15;;
16472;SDS011;8347;52.486;13.432;2022-10-31T20:12:59;56.03;;;33.08;;
16472;SDS011;8347;52.486;13.432;2022-10-31T20:15:45;53.83;;;35.03;;
16472;SDS011;8347;52.486;13.432;2022-10-31T20:18:32;48.40;;;33.47;;
16472;SDS011;8347;52.486;13.432;2022-10-31T20:21:21;56.78;;;33.55;;
16472;SDS011;8347;52.486;13.432;2022-10-31T20:24:08;50.42;;;35.95;;
16472;SDS011;8347;52.486;13.432;2022-10-31T20:26:55;47.55;;;32.10;;
16472;SDS011;8347;52.486;13.432;2022-10-31T20:29:42;47.67;;;31.23;;
16472;SDS011;8347;52.486;13.432;2022-10-31T20:32:28;49.58;;;30.83;;
16472;SDS011;8347;52.486;13.432;2022-10-31T20:35:15;47.22;;;31.13;;
16472;SDS011;8347;52.486;13.432;2022-10-31T20:38:02;43.30;;;29.33;;
16472;SDS011;8347;52.486;13.432;2022-10-31T20:40:49;44.15;;;30.20;;
16472;SDS011;8347;52.486;13.432;2022-10-31T20:43:36;47.53;;;32.10;;
16472;SDS011;8347;52.486;13.432;2022-10-31T20:46:24;46.10;;;29.80;;
16472;SDS011;8347;52.486;13.432;2022-10-31T20:49:11;46.75;;;29.55;;
16472;SDS011;8347;52.486;13.432;2022-10-31T20:51:57;46.53;;;32.13;;
16472;SDS011;8347;52.486;13.432;2022-10-31T20:54:44;43.88;;;29.30;;
16472;SDS011;8347;52.486;13.432;2022-10-31T20:57:30;57.67;;;31.23;;
16472;SDS011;8347;52.486;13.432;2022-10-31T21:00:17;42.80;;;31.15;;
16472;SDS011;8347;52.486;13.432;2022-10-31T21:03:03;42.58;;;28.92;;
16472;SDS011;8347;52.486;13.432;2022-10-31T21:05:51;40.15;;;28.55;;
16472;SDS011;8347;52.486;13.432;2022-10-31T21:08:42;50.05;;;29.75;;
16472;SDS011;8347;52.486;13.432;2022-10-31T21:11:30;42.15;;;28.35;;
16472;SDS011;8347;52.486;13.432;2022-10-31T21:14:17;43.35;;;27.67;;
16472;SDS011;8347;52.486;13.432;2022-10-31T21:17:03;42.42;;;27.75;;
16472;SDS011;8347;52.486;13.432;2022-10-31T21:19:50;42.08;;;28.77;;
16472;SDS011;8347;52.486;13.432;2022-10-31T21:22:37;40.05;;;27.80;;
16472;SDS011;8347;52.486;13.432;2022-10-31T21:25:23;44.90;;;29.88;;
16472;SDS011;8347;52.486;13.432;2022-10-31T21:28:10;45.92;;;30.42;;
16472;SDS011;8347;52.486;13.432;2022-10-31T21:30:57;40.78;;;28.42;;
16472;SDS011;8347;52.486;13.432;2022-10-31T21:33:45;41.25;;;28.48;;
16472;SDS011;8347;52.486;13.432;2022-10-31T21:36:31;36.53;;;26.05;;
16472;SDS011;8347;52.486;13.432;2022-10-31T21:39:19;45.60;;;26.88;;
16472;SDS011;8347;52.486;13.432;2022-10-31T21:42:05;42.15;;;27.40;;
16472;SDS011;8347;52.486;13.432;2022-10-31T21:44:52;37.25;;;25.55;;
16472;SDS011;8347;52.486;13.432;2022-10-31T21:47:39;38.60;;;28.05;;
16472;SDS011;8347;52.486;13.432;2022-10-31T21:50:25;38.83;;;27.05;;
16472;SDS011;8347;52.486;13.432;2022-10-31T21:53:12;37.55;;;24.88;;
16472;SDS011;8347;52.486;13.432;2022-10-31T21:56:17;40.15;;;27.65;;
16472;SDS011;8347;52.486;13.432;2022-10-31T21:59:04;34.80;;;25.58;;
16472;SDS011;8347;52.486;13.432;2022-10-31T22:01:51;35.17;;;24.50;;
16472;SDS011;8347;52.486;13.432;2022-10-31T22:04:37;40.05;;;24.48;;
16472;SDS011;8347;52.486;13.432;2022-10-31T22:07:25;40.97;;;26.15;;
16472;SDS011;8347;52.486;13.432;2022-10-31T22:10:12;35.35;;;23.60;;
16472;SDS011;8347;52.486;13.432;2022-10-31T22:12:59;35.70;;;24.20;;
16472;SDS011;8347;52.486;13.432;2022-10-31T22:15:45;34.05;;;24.70;;
16472;SDS011;8347;52.486;13.432;2022-10-31T22:18:32;36.75;;;26.35;;
16472;SDS011;8347;52.486;13.432;2022-10-31T22:21:19;37.92;;;25.25;;
16472;SDS011;8347;52.486;13.432;2022-10-31T22:24:08;32.30;;;24.13;;
16472;SDS011;8347;52.486;13.432;2022-10-31T22:26:55;32.63;;;23.80;;
16472;SDS011;8347;52.486;13.432;2022-10-31T22:29:42;33.25;;;23.42;;
